Time;durP1;ratioP1;P1;durP2;ratioP2;P2;SDS_P1;SDS_P2;PMS_P1;PMS_P2;Temp;Humidity;BMP_temperature;BMP_pressure;BME280_temperature;BME280_humidity;BME280_pressure;Samples;Min_cycle;Max_cycle;Signal;HPM_P1;HPM_P2
2022/05/10 00:01:57;;;;;;;10.53;5.55;;;;;;;5.18;51.87;101436.73;1692768;84;25624;-68
2022/05/10 00:04:23;;;;;;;13.20;5.90;;;;;;;5.15;52.14;101445.26;1692775;84;25782;-69
2022/05/10 00:06:50;;;;;;;13.62;5.67;;;;;;;5.11;52.08;101443.30;1692611;84;28133;-68
2022/05/10 00:09:22;;;;;;;13.03;5.85;;;;;;;5.07;52.63;101442.17;1692196;84;25636;-68
2022/05/10 00:11:49;;;;;;;8.78;5.33;;;;;;;5.02;52.71;101437.03;1691542;84;25596;-68
2022/05/10 00:14:15;;;;;;;12.78;5.75;;;;;;;4.99;53.01;101442.06;1691303;84;25746;-69
2022/05/10 00:16:44;;;;;;;14.70;6.12;;;;;;;4.95;52.92;101440.37;1691509;84;25700;-69
2022/05/10 00:19:15;;;;;;;10.13;5.15;;;;;;;4.92;52.77;101436.86;1691601;84;27307;-69
2022/05/10 00:21:42;;;;;;;11.90;5.67;;;;;;;4.91;52.47;101435.22;1691199;84;25787;-69
2022/05/10 00:24:09;;;;;;;12.37;5.58;;;;;;;4.90;52.37;101430.10;1691596;84;25662;-69
2022/05/10 00:26:35;;;;;;;15.28;6.62;;;;;;;4.90;52.53;101430.91;1691431;84;25636;-68
2022/05/10 00:29:01;;;;;;;9.03;5.70;;;;;;;4.91;52.49;101427.18;1691296;84;32432;-68
2022/05/10 00:31:29;;;;;;;10.35;6.00;;;;;;;4.92;52.62;101430.66;1691521;84;27416;-69
2022/05/10 00:33:57;;;;;;;15.90;6.60;;;;;;;4.91;52.86;101419.67;1669380;84;25692;-69
2022/05/10 00:36:25;;;;;;;17.52;7.03;;;;;;;4.91;53.04;101423.70;1691886;84;25564;-68
2022/05/10 00:38:51;;;;;;;11.03;6.05;;;;;;;4.89;53.34;101421.25;1692102;84;25613;-68
2022/05/10 00:41:40;;;;;;;10.05;5.50;;;;;;;4.89;53.26;101423.10;1691967;84;25472;-68
2022/05/10 00:44:20;;;;;;;14.25;6.78;;;;;;;4.88;53.22;101417.47;1691858;84;28099;-68
2022/05/10 00:46:54;;;;;;;17.90;6.50;;;;;;;4.85;53.51;101416.91;1691774;84;25800;-68
2022/05/10 00:49:47;;;;;;;14.73;6.83;;;;;;;4.82;53.54;101411.22;1682675;84;25555;-68
2022/05/10 00:52:40;;;;;;;12.03;5.92;;;;;;;4.81;53.77;101413.61;1691682;84;27831;-68
2022/05/10 00:55:44;;;;;;;11.18;5.80;;;;;;;4.79;54.08;101411.16;1691471;84;25482;-68
2022/05/10 00:59:05;;;;;;;13.85;5.83;;;;;;;4.77;53.77;101409.27;1691753;84;27408;-68
2022/05/10 01:01:34;;;;;;;15.18;6.08;;;;;;;4.77;53.86;101408.45;1580294;90;25549;-68
2022/05/10 01:04:31;;;;;;;15.95;6.53;;;;;;;4.72;54.25;101400.33;1580414;90;25729;-68
2022/05/10 01:07:08;;;;;;;11.48;5.87;;;;;;;4.73;54.06;101405.42;1580269;90;25778;-69
2022/05/10 01:09:49;;;;;;;14.90;6.20;;;;;;;4.72;54.05;101402.48;1580486;90;25884;-68
2022/05/10 01:12:33;;;;;;;15.90;6.85;;;;;;;4.70;54.21;101399.73;1581033;90;27323;-68
2022/05/10 01:15:10;;;;;;;12.40;6.42;;;;;;;4.66;54.06;101398.07;1581076;90;27066;-68
2022/05/10 01:17:37;;;;;;;12.43;6.25;;;;;;;4.63;54.24;101392.69;1581067;90;25479;-68
2022/05/10 01:20:06;;;;;;;12.13;6.42;;;;;;;4.63;54.00;101395.36;1581068;90;25784;-68
2022/05/10 01:22:36;;;;;;;;;;;;;;;4.62;54.29;101395.60;1583484;90;25571;-67
2022/05/10 01:25:14;;;;;;;13.08;6.92;;;;;;;4.61;54.72;101393.97;1581219;90;27946;-67
2022/05/10 01:28:11;;;;;;;13.65;6.83;;;;;;;4.58;54.37;101389.92;1581107;90;25922;-68
2022/05/10 01:30:38;;;;;;;16.87;6.70;;;;;;;4.57;54.30;101388.28;1581063;90;25699;-68
2022/05/10 01:33:29;;;;;;;14.25;6.22;;;;;;;4.55;54.51;101378.34;1581060;90;25693;-68
2022/05/10 01:36:13;;;;;;;11.35;5.87;;;;;;;4.53;54.39;101382.30;1641394;83;25678;-68
2022/05/10 01:38:57;;;;;;;15.68;7.03;;;;;;;4.53;54.21;101378.27;1694296;84;28132;-67
2022/05/10 01:41:47;;;;;;;14.87;7.25;;;;;;;4.51;53.90;101382.53;1695243;84;25410;-68
2022/05/10 01:44:24;;;;;;;16.45;7.33;;;;;;;4.48;53.69;101379.02;1695405;84;25438;-68
2022/05/10 01:46:56;;;;;;;11.45;6.62;;;;;;;4.44;54.06;101370.66;1695297;84;25564;-68
2022/05/10 01:49:31;;;;;;;13.45;7.08;;;;;;;4.41;53.96;101371.14;1693409;84;25399;-67
2022/05/10 01:52:05;;;;;;;13.20;6.83;;;;;;;4.36;54.19;101363.01;1695131;84;27326;-68
2022/05/10 01:54:43;;;;;;;11.20;5.95;;;;;;;4.33;54.13;101366.70;1695221;84;25676;-68
2022/05/10 01:57:16;;;;;;;16.20;6.87;;;;;;;4.27;54.39;101363.09;1695417;84;25591;-67
2022/05/10 01:59:54;;;;;;;12.07;6.85;;;;;;;4.23;54.47;101365.98;1695370;84;25616;-67
2022/05/10 02:02:23;;;;;;;11.97;7.00;;;;;;;4.18;54.48;101365.35;1695423;84;25632;-67
2022/05/10 02:04:54;;;;;;;14.38;7.10;;;;;;;4.12;54.59;101363.65;1695477;84;27430;-67
2022/05/10 02:07:24;;;;;;;16.67;6.58;;;;;;;4.09;54.51;101360.11;1695342;84;25751;-67
2022/05/10 02:10:16;;;;;;;14.85;6.87;;;;;;;4.07;54.45;101359.51;1695392;83;25471;-67
2022/05/10 02:12:59;;;;;;;14.75;6.83;;;;;;;4.02;54.91;101356.23;1695423;84;26062;-67
2022/05/10 02:15:31;;;;;;;12.23;6.60;;;;;;;3.97;54.74;101357.98;1695458;84;25491;-66
2022/05/10 02:18:06;;;;;;;15.18;6.75;;;;;;;3.93;55.13;101360.32;1694389;84;27349;-66
2022/05/10 02:20:55;;;;;;;17.35;6.30;;;;;;;3.88;55.14;101361.56;1695271;84;25623;-67
2022/05/10 02:23:39;;;;;;;13.20;6.30;;;;;;;3.86;55.42;101363.66;1695493;84;25450;-66
2022/05/10 02:26:11;;;;;;;15.38;6.42;;;;;;;3.79;55.63;101354.44;1695369;84;25613;-67
2022/05/10 02:29:11;;;;;;;11.85;6.67;;;;;;;3.72;55.70;101354.56;1695446;84;25622;-66
2022/05/10 02:34:50;;;;;;;13.40;6.87;;;;;;;3.65;55.81;101355.23;1695316;84;25584;-67
2022/05/10 02:37:17;;;;;;;21.45;6.75;;;;;;;3.60;55.83;101355.13;1695361;84;25585;-67
2022/05/10 02:39:43;;;;;;;15.38;6.58;;;;;;;3.56;56.42;101355.32;1695306;84;25627;-67
2022/05/10 02:42:12;;;;;;;16.48;6.65;;;;;;;3.51;56.06;101358.70;1695407;84;25594;-67
2022/05/10 02:44:40;;;;;;;17.07;6.45;;;;;;;3.48;56.33;101359.16;1695491;84;27327;-67
2022/05/10 02:47:08;;;;;;;14.30;6.05;;;;;;;3.44;56.50;101351.33;1695295;84;25691;-67
2022/05/10 02:49:38;;;;;;;12.53;6.40;;;;;;;3.40;56.44;101354.16;1695587;84;25494;-66
2022/05/10 02:52:05;;;;;;;10.78;6.08;;;;;;;3.35;56.50;101351.38;1695524;84;25569;-67
2022/05/10 02:54:31;;;;;;;15.18;6.87;;;;;;;3.32;56.37;101353.18;1695387;84;25426;-67
2022/05/10 02:57:01;;;;;;;18.10;6.83;;;;;;;3.28;56.73;101356.85;1695369;84;27395;-67
2022/05/10 02:59:33;;;;;;;13.45;6.95;;;;;;;3.24;56.39;101353.03;1695254;84;25401;-67
2022/05/10 03:02:14;;;;;;;13.83;7.17;;;;;;;3.20;56.26;101349.71;1695374;84;25469;-67
2022/05/10 03:04:45;;;;;;;16.67;7.00;;;;;;;3.15;56.51;101349.06;1695334;84;25621;-67
2022/05/10 03:07:11;;;;;;;15.95;7.35;;;;;;;3.13;57.06;101351.16;1695417;84;25414;-69
2022/05/10 03:09:38;;;;;;;16.48;7.67;;;;;;;3.10;56.83;101342.27;1694687;84;27319;-68
2022/05/10 03:12:06;;;;;;;17.02;8.60;;;;;;;3.07;56.76;101348.10;1688532;84;33181;-69
2022/05/10 03:14:34;;;;;;;19.90;8.40;;;;;;;3.02;56.65;101348.80;1688906;84;25344;-67
2022/05/10 03:17:00;;;;;;;27.30;10.50;;;;;;;3.02;56.65;101348.80;1688620;85;25704;-67
2022/05/10 03:19:26;;;;;;;18.37;9.30;;;;;;;2.98;56.90;101337.75;1688634;85;25217;-67
2022/05/10 03:21:52;;;;;;;21.17;9.03;;;;;;;2.97;56.96;101336.12;1688630;84;27465;-67
2022/05/10 03:24:19;;;;;;;16.48;8.83;;;;;;;2.94;57.08;101332.56;1688534;84;25628;-67
2022/05/10 03:26:51;;;;;;;18.35;7.47;;;;;;;2.91;56.97;101329.55;1688648;84;25389;-67
2022/05/10 03:29:20;;;;;;;18.20;8.33;;;;;;;2.90;57.30;101334.62;1688580;85;25676;-68
2022/05/10 03:31:46;;;;;;;14.60;7.55;;;;;;;2.86;57.74;101335.61;1688621;84;25478;-68
2022/05/10 03:36:57;;;;;;;16.00;7.33;;;;;;;2.84;57.43;101329.66;1688513;85;25611;-67
2022/05/10 03:39:24;;;;;;;16.37;8.08;;;;;;;2.84;57.68;101333.67;1688614;84;25668;-68
2022/05/10 03:41:50;;;;;;;14.15;7.97;;;;;;;2.88;58.06;101334.02;1688561;85;25617;-68
2022/05/10 03:44:16;;;;;;;14.87;7.60;;;;;;;2.88;58.28;101328.67;1688617;84;32467;-68
2022/05/10 03:46:45;;;;;;;15.30;7.50;;;;;;;2.89;58.19;101328.97;1688611;84;27867;-68
2022/05/10 03:49:12;;;;;;;14.18;6.85;;;;;;;2.91;58.60;101329.55;1688738;84;25846;-67
2022/05/10 03:51:39;;;;;;;15.20;7.42;;;;;;;2.95;58.47;101334.73;1688654;85;25440;-67
2022/05/10 03:54:05;;;;;;;13.88;6.60;;;;;;;2.99;58.74;101326.53;1688578;84;25548;-67
2022/05/10 03:56:33;;;;;;;12.78;6.55;;;;;;;3.03;58.99;101326.88;1688639;84;25455;-67
2022/05/10 03:59:00;;;;;;;14.23;7.10;;;;;;;3.07;59.16;101323.52;1688574;85;28014;-68
2022/05/10 04:01:27;;;;;;;13.15;6.72;;;;;;;3.10;59.06;101318.20;1688539;84;25602;-68
2022/05/10 04:03:53;;;;;;;12.03;5.80;;;;;;;3.14;59.12;101322.86;1688601;85;25547;-68
2022/05/10 04:06:20;;;;;;;10.15;6.80;;;;;;;3.21;59.32;101316.59;1688516;84;25669;-68
2022/05/10 04:08:46;;;;;;;13.83;6.20;;;;;;;3.24;59.37;101314.25;1688643;84;25413;-68
2022/05/10 04:11:14;;;;;;;16.93;8.50;;;;;;;3.32;59.45;101315.74;1693724;83;27363;-68
2022/05/10 04:13:43;;;;;;;14.23;7.28;;;;;;;3.38;59.44;101320.69;1697197;84;25451;-68
2022/05/10 04:16:10;;;;;;;11.83;6.00;;;;;;;3.45;59.84;101319.50;1697421;84;25545;-68
2022/05/10 04:18:36;;;;;;;13.70;5.70;;;;;;;3.55;59.91;101322.92;1697254;84;25526;-68
2022/05/10 04:21:04;;;;;;;15.70;6.15;;;;;;;3.65;59.96;101318.30;1697360;84;25631;-68
2022/05/10 04:23:32;;;;;;;13.77;6.03;;;;;;;3.75;60.14;101318.50;1697588;84;27997;-67
2022/05/10 04:26:12;;;;;;;12.00;5.78;;;;;;;3.85;60.02;101317.89;1697250;84;25466;-67
2022/05/10 04:28:40;;;;;;;10.20;6.05;;;;;;;3.95;60.20;101315.41;1697314;84;25619;-68
2022/05/10 04:31:08;;;;;;;12.50;6.75;;;;;;;4.07;60.03;101323.36;1697411;84;26186;-68
2022/05/10 04:33:35;;;;;;;13.48;6.25;;;;;;;4.21;59.68;101320.69;1697492;84;25644;-67
2022/05/10 04:36:02;;;;;;;12.98;6.28;;;;;;;4.36;59.86;101326.84;1697405;84;28101;-67
2022/05/10 04:38:29;;;;;;;11.78;6.20;;;;;;;4.50;59.55;101326.00;1697265;84;25491;-67
2022/05/10 04:43:42;;;;;;;17.85;5.92;;;;;;;4.80;59.32;101322.17;1697365;84;26192;-66
2022/05/10 04:46:10;;;;;;;11.90;6.20;;;;;;;5.02;59.10;101327.59;1697429;84;25540;-66
2022/05/10 04:48:36;;;;;;;11.38;5.83;;;;;;;5.18;58.80;101331.32;1697279;84;27979;-66
2022/05/10 04:51:05;;;;;;;16.80;6.10;;;;;;;5.35;58.72;101328.05;1697234;84;25573;-67
2022/05/10 04:53:31;;;;;;;14.50;6.08;;;;;;;5.53;58.33;101331.48;1697335;84;25409;-68
2022/05/10 04:55:58;;;;;;;14.53;7.87;;;;;;;5.72;58.21;101327.45;1697715;84;26377;-68
2022/05/10 04:58:24;;;;;;;12.05;6.15;;;;;;;5.91;57.98;101331.95;1697549;84;25821;-68
2022/05/10 05:00:51;;;;;;;14.05;6.45;;;;;;;6.10;57.34;101323.58;1697391;84;27308;-68
2022/05/10 05:03:18;;;;;;;23.02;5.83;;;;;;;6.29;57.25;101317.30;1697255;84;25606;-68
2022/05/10 05:05:45;;;;;;;10.20;5.37;;;;;;;6.48;56.68;101319.08;1697233;84;25615;-69
2022/05/10 05:08:11;;;;;;;12.68;5.15;;;;;;;6.67;56.29;101320.30;1697244;84;26036;-68
2022/05/10 05:10:37;;;;;;;6.28;4.42;;;;;;;6.89;55.96;101326.11;1673659;84;25652;-68
2022/05/10 05:13:03;;;;;;;10.75;5.05;;;;;;;7.08;55.17;101320.59;1688609;84;28144;-68
2022/05/10 05:15:30;;;;;;;10.75;5.20;;;;;;;7.29;54.97;101318.81;1688478;84;25423;-68
2022/05/10 05:17:56;;;;;;;12.55;4.30;;;;;;;7.52;54.63;101321.34;1688832;84;25577;-70
2022/05/10 05:20:22;;;;;;;10.55;4.87;;;;;;;7.74;53.89;101320.61;1688959;84;34629;-68
2022/05/10 05:22:48;;;;;;;10.78;4.30;;;;;;;7.99;52.56;101325.27;1688728;85;25577;-68
2022/05/10 05:25:14;;;;;;;8.95;3.58;;;;;;;8.27;52.83;101323.14;1688556;84;27330;-68
2022/05/10 05:27:41;;;;;;;13.53;4.22;;;;;;;8.57;51.91;101322.38;1688424;85;25439;-69
2022/05/10 05:30:09;;;;;;;11.38;3.58;;;;;;;8.84;52.23;101322.64;1688519;84;25449;-69
2022/05/10 05:32:35;;;;;;;7.35;3.35;;;;;;;9.12;50.85;101328.52;1670521;85;26294;-69
2022/05/10 05:35:03;;;;;;;6.35;3.17;;;;;;;9.40;50.17;101333.85;1688609;84;25395;-69
2022/05/10 05:37:32;;;;;;;23.83;4.45;;;;;;;9.70;50.53;101328.87;1686235;85;27328;-69
2022/05/10 05:40:08;;;;;;;13.08;3.40;;;;;;;9.99;50.19;101329.50;1685375;85;25774;-69
2022/05/10 05:42:36;;;;;;;8.20;2.90;;;;;;;10.32;49.17;101334.46;1687656;85;25668;-69
2022/05/10 05:45:06;;;;;;;8.60;3.25;;;;;;;10.61;48.28;101333.98;1684356;84;26207;-69
2022/05/10 05:47:34;;;;;;;10.93;3.00;;;;;;;10.93;47.04;101338.55;1686328;85;25634;-69
2022/05/10 05:50:00;;;;;;;9.65;3.52;;;;;;;11.23;47.12;101335.28;1684108;84;28030;-69
2022/05/10 05:52:27;;;;;;;7.83;3.75;;;;;;;11.47;45.77;101334.72;1685208;85;25735;-69
2022/05/10 05:54:54;;;;;;;7.22;3.25;;;;;;;11.71;45.50;101331.18;1685394;84;25712;-69
2022/05/10 05:57:21;;;;;;;10.05;3.42;;;;;;;11.92;45.30;101327.14;1683897;84;25556;-69
2022/05/10 05:59:48;;;;;;;11.05;3.12;;;;;;;12.15;44.98;101320.01;1686325;85;25483;-69
2022/05/10 06:02:18;;;;;;;10.72;2.55;;;;;;;12.37;44.19;101332.17;1684586;85;27331;-70
2022/05/10 06:04:45;;;;;;;5.45;2.62;;;;;;;12.54;43.05;101325.41;1684867;85;25664;-70
2022/05/10 06:07:13;;;;;;;6.55;2.67;;;;;;;12.71;42.65;101328.36;1686048;85;25680;-70
2022/05/10 06:09:42;;;;;;;9.03;2.58;;;;;;;12.89;42.15;101336.20;1683889;85;26227;-69
2022/05/10 06:12:12;;;;;;;14.95;3.10;;;;;;;13.01;41.63;101329.73;1691924;84;25617;-69
2022/05/10 06:14:39;;;;;;;11.88;2.65;;;;;;;13.17;41.19;101330.23;1693712;84;28116;-70
2022/05/10 06:17:07;;;;;;;5.85;2.15;;;;;;;13.34;40.87;101321.52;1692899;84;25657;-70
2022/05/10 06:19:37;;;;;;;5.70;2.30;;;;;;;13.48;40.58;101314.70;1695043;84;25488;-70
2022/05/10 06:22:06;;;;;;;19.37;2.72;;;;;;;13.63;40.36;101308.95;1691908;84;25777;-70
2022/05/10 06:24:33;;;;;;;11.88;2.87;;;;;;;13.85;40.24;101318.28;1692515;84;25740;-69
2022/05/10 06:27:01;;;;;;;9.80;2.20;;;;;;;14.04;39.63;101305.09;1693125;84;27425;-70
2022/05/10 06:29:27;;;;;;;27.32;3.62;;;;;;;14.28;39.55;101302.06;1694896;84;25642;-69
2022/05/10 06:31:54;;;;;;;10.63;2.05;;;;;;;14.51;39.22;101299.58;1692499;84;25388;-68
2022/05/10 06:34:20;;;;;;;9.38;2.47;;;;;;;14.77;38.02;101301.68;1694170;84;25766;-69
2022/05/10 06:36:47;;;;;;;7.28;2.17;;;;;;;14.91;36.18;101305.13;1693893;84;25511;-69
2022/05/10 06:39:13;;;;;;;3.65;1.57;;;;;;;15.05;36.19;101301.47;1694637;84;27346;-69
2022/05/10 06:41:40;;;;;;;6.47;1.60;;;;;;;15.22;35.70;101298.02;1697314;84;25398;-69
2022/05/10 06:44:07;;;;;;;6.10;1.60;;;;;;;15.39;35.75;101291.81;1697350;84;25477;-69
2022/05/10 06:46:35;;;;;;;6.90;1.77;;;;;;;15.64;36.18;101300.59;1697306;84;25705;-69
2022/05/10 06:49:04;;;;;;;2.70;1.70;;;;;;;15.90;35.20;101293.02;1697386;84;25399;-69
2022/05/10 06:51:32;;;;;;;2.47;2.07;;;;;;;16.13;34.63;101292.31;1697689;84;27376;-69
2022/05/10 06:54:00;;;;;;;6.37;2.12;;;;;;;16.32;34.51;101285.14;1697301;84;25659;-69
2022/05/10 06:56:27;;;;;;;6.08;2.45;;;;;;;16.61;34.38;101296.72;1697529;84;25584;-71
2022/05/10 06:58:53;;;;;;;8.63;2.10;;;;;;;16.92;34.43;101292.16;1697293;84;25655;-71
2022/05/10 07:01:20;;;;;;;7.50;2.12;;;;;;;17.22;33.81;101290.83;1697330;84;25557;-71
2022/05/10 07:03:49;;;;;;;7.03;2.00;;;;;;;17.47;33.31;101287.69;1697336;84;27885;-71
2022/05/10 07:06:19;;;;;;;;;;;;;;;17.74;32.49;101290.48;1699763;84;25627;-69
2022/05/10 07:08:46;;;;;;;7.10;1.98;;;;;;;17.88;31.59;101288.33;1697249;84;25622;-71
2022/05/10 07:11:13;;;;;;;8.23;1.60;;;;;;;18.05;32.11;101293.44;1697163;84;25621;-71
2022/05/10 07:13:40;;;;;;;5.33;1.90;;;;;;;18.37;31.66;101286.91;1697384;84;25658;-70
2022/05/10 07:16:08;;;;;;;6.95;1.95;;;;;;;18.66;31.44;101286.77;1697329;84;29492;-69
2022/05/10 07:18:34;;;;;;;5.65;2.08;;;;;;;18.98;31.44;101291.16;1697217;84;25400;-69
2022/05/10 07:21:01;;;;;;;8.23;1.90;;;;;;;19.27;30.30;101283.06;1697317;84;25648;-69
2022/05/10 07:23:30;;;;;;;4.08;1.82;;;;;;;19.50;30.85;101276.53;1697300;84;25629;-69
2022/05/10 07:25:58;;;;;;;4.30;1.82;;;;;;;19.80;29.38;101277.61;1697369;84;25620;-69
2022/05/10 07:28:29;;;;;;;5.70;2.17;;;;;;;19.94;28.78;101276.09;1697364;84;27317;-68
2022/05/10 07:30:54;;;;;;;10.85;2.00;;;;;;;20.13;28.74;101268.56;1697340;84;25628;-70
2022/05/10 07:33:21;;;;;;;2.65;1.87;;;;;;;20.44;28.45;101268.40;1697344;84;25621;-69
2022/05/10 07:38:32;;;;;;;3.83;1.67;;;;;;;20.68;27.54;101265.31;1697398;84;25441;-68
2022/05/10 07:40:58;;;;;;;4.75;2.08;;;;;;;21.01;27.23;101266.33;1697347;84;27484;-69
2022/05/10 07:43:27;;;;;;;6.33;1.92;;;;;;;21.28;26.82;101265.16;1697337;84;25561;-70
2022/05/10 07:45:54;;;;;;;;;;;;;;;21.55;26.62;101261.26;1699840;84;25504;-69
2022/05/10 07:48:22;;;;;;;3.00;1.90;;;;;;;21.88;25.77;101275.92;1675306;84;25685;-69
2022/05/10 07:50:50;;;;;;;6.47;2.00;;;;;;;22.09;25.96;101281.05;1697628;84;25640;-69
2022/05/10 07:53:16;;;;;;;3.35;1.95;;;;;;;22.09;25.96;101281.05;1697308;84;27361;-69
2022/05/10 07:55:44;;;;;;;6.70;2.00;;;;;;;22.25;25.61;101268.55;1697332;84;25606;-69
2022/05/10 07:58:10;;;;;;;3.70;2.12;;;;;;;22.48;24.67;101257.59;1697279;84;25619;-69
2022/05/10 08:00:41;;;;;;;4.97;1.75;;;;;;;22.66;24.85;101263.98;1697268;84;25621;-69
2022/05/10 08:03:18;;;;;;;2.80;1.67;;;;;;;22.80;24.32;101260.66;1697408;84;25617;-69
2022/05/10 08:05:45;;;;;;;7.03;1.87;;;;;;;23.00;24.29;101261.38;1697299;84;27309;-70
2022/05/10 08:08:12;;;;;;;7.15;1.70;;;;;;;23.09;23.79;101255.84;1697232;84;25619;-70
2022/05/10 08:10:42;;;;;;;5.42;1.75;;;;;;;23.13;23.63;101260.03;1697331;84;25587;-70
2022/05/10 08:13:18;;;;;;;;;;;;;;;23.41;23.67;101255.52;1699717;84;25631;-69
2022/05/10 08:15:45;;;;;;;3.42;1.65;;;;;;;23.77;23.24;101258.73;1697378;84;25406;-71
2022/05/10 08:18:12;;;;;;;3.95;1.62;;;;;;;23.92;22.11;101251.42;1697269;84;28097;-70
2022/05/10 08:20:39;;;;;;;5.58;1.70;;;;;;;23.95;21.40;101253.43;1697129;84;25376;-69
2022/05/10 08:23:06;;;;;;;4.15;1.47;;;;;;;23.85;20.80;101259.63;1697036;84;25674;-69
2022/05/10 08:25:34;;;;;;;3.55;1.45;;;;;;;23.92;20.53;101250.63;1696994;84;26308;-69
2022/05/10 08:28:01;;;;;;;2.50;1.65;;;;;;;24.10;20.96;101248.86;1697072;84;25757;-69
2022/05/10 08:30:28;;;;;;;5.22;1.70;;;;;;;24.38;20.62;101251.13;1697191;84;27330;-70
2022/05/10 08:32:54;;;;;;;6.17;2.47;;;;;;;24.39;20.39;101243.63;1696910;84;25870;-68
2022/05/10 08:35:21;;;;;;;8.13;1.80;;;;;;;24.63;20.96;101239.52;1697072;84;25433;-68
2022/05/10 08:37:47;;;;;;;6.65;2.33;;;;;;;24.95;20.60;101243.91;1696906;84;25760;-68
2022/05/10 08:40:30;;;;;;;10.00;6.05;;;;;;;25.08;20.15;101237.48;1697069;84;25403;-69
2022/05/10 08:43:02;;;;;;;7.90;2.30;;;;;;;25.07;20.38;101237.27;1695802;84;27370;-69
2022/05/10 08:45:30;;;;;;;3.27;1.65;;;;;;;25.36;20.20;101231.92;1696981;84;25523;-69
2022/05/10 08:47:56;;;;;;;3.80;1.45;;;;;;;25.75;20.65;101227.74;1696979;84;25427;-70
2022/05/10 08:50:22;;;;;;;5.85;1.50;;;;;;;26.20;20.15;101226.87;1696962;84;25700;-69
2022/05/10 08:52:52;;;;;;;3.67;1.42;;;;;;;26.42;19.38;101231.25;1696934;84;25679;-70
2022/05/10 08:55:28;;;;;;;2.40;1.60;;;;;;;26.32;18.87;101228.47;1697078;84;27324;-70
2022/05/10 08:58:09;;;;;;;3.40;1.50;;;;;;;26.27;18.33;101237.39;1696918;84;25668;-70
2022/05/10 09:00:44;;;;;;;3.62;1.70;;;;;;;26.16;18.80;101229.64;1697317;84;25622;-69
2022/05/10 09:03:32;;;;;;;4.35;1.80;;;;;;;26.06;18.48;101222.89;1697156;84;26365;-69
2022/05/10 09:06:07;;;;;;;3.83;1.90;;;;;;;25.99;18.07;101223.48;1697146;84;25251;-70
2022/05/10 09:08:45;;;;;;;4.95;1.52;;;;;;;26.00;18.33;101223.66;1696979;84;27348;-70
2022/05/10 09:11:14;;;;;;;4.60;1.50;;;;;;;26.18;17.87;101214.79;1696990;84;25407;-70
2022/05/10 09:13:43;;;;;;;3.22;1.67;;;;;;;26.05;17.99;101217.16;1689023;84;25392;-70
2022/05/10 09:16:13;;;;;;;5.72;1.70;;;;;;;26.26;18.15;101207.28;1688404;84;25462;-70
2022/05/10 09:18:49;;;;;;;5.87;2.37;;;;;;;26.53;18.03;101201.33;1688292;85;25624;-69
2022/05/10 09:21:26;;;;;;;2.80;1.62;;;;;;;26.88;18.33;101199.75;1687966;84;27406;-69
2022/05/10 09:24:19;;;;;;;6.17;2.10;;;;;;;27.21;18.02;101197.09;1688066;85;25444;-69
2022/05/10 09:26:50;;;;;;;8.88;2.22;;;;;;;27.26;17.26;101190.31;1687465;84;25655;-69
2022/05/10 09:29:28;;;;;;;9.73;2.22;;;;;;;27.14;16.83;101185.41;1688358;84;25725;-67
2022/05/10 09:34:54;;;;;;;2.80;1.60;;;;;;;26.75;17.00;101189.07;1688217;84;27341;-69
2022/05/10 09:37:29;;;;;;;2.72;1.80;;;;;;;26.82;16.65;101198.77;1687910;84;25635;-69
2022/05/10 09:40:01;;;;;;;2.12;1.80;;;;;;;26.60;16.19;101193.03;1688301;84;25645;-69
2022/05/10 09:42:42;;;;;;;4.10;1.98;;;;;;;26.55;16.41;101185.89;1688349;85;27784;-69
2022/05/10 09:45:23;;;;;;;2.77;1.60;;;;;;;26.58;16.49;101180.13;1688146;84;25520;-69
2022/05/10 09:48:03;;;;;;;2.87;1.47;;;;;;;26.81;16.48;101170.81;1688470;84;27314;-70
2022/05/10 09:50:52;;;;;;;5.00;1.85;;;;;;;27.11;16.53;101169.55;1687492;84;27113;-69
2022/05/10 09:53:32;;;;;;;2.22;1.40;;;;;;;27.35;16.13;101150.45;1688333;85;25608;-69
2022/05/10 09:56:26;;;;;;;4.08;1.95;;;;;;;27.58;16.13;101153.52;1688373;84;27860;-69
2022/05/10 09:59:01;;;;;;;3.12;1.75;;;;;;;27.83;16.11;101150.38;1688733;84;25620;-70
2022/05/10 10:01:48;;;;;;;5.15;1.67;;;;;;;28.04;16.00;101152.23;1689131;85;27391;-69
2022/05/10 10:04:20;;;;;;;3.00;1.80;;;;;;;28.26;15.79;101145.30;1687176;84;25922;-70
2022/05/10 10:07:14;;;;;;;3.08;1.60;;;;;;;28.33;15.35;101147.23;1688482;84;25398;-71
2022/05/10 10:09:44;;;;;;;4.35;1.77;;;;;;;28.20;15.54;101128.87;1670367;85;26277;-69
2022/05/10 10:12:32;;;;;;;2.95;1.40;;;;;;;28.42;15.80;101133.65;1689576;84;25297;-70
2022/05/10 10:15:02;;;;;;;12.03;2.40;;;;;;;28.56;15.21;101131.34;1697255;84;27428;-70
2022/05/10 10:17:32;;;;;;;4.90;1.62;;;;;;;28.08;15.24;101127.99;1697003;84;25681;-70
2022/05/10 10:20:07;;;;;;;4.65;2.10;;;;;;;27.75;14.72;101132.37;1697151;84;25591;-70
2022/05/10 10:22:44;;;;;;;2.35;1.65;;;;;;;27.25;15.30;101128.44;1697133;84;25686;-70
2022/05/10 10:25:25;;;;;;;5.00;2.20;;;;;;;27.07;15.74;101117.39;1697123;84;25679;-71
2022/05/10 10:28:15;;;;;;;8.40;2.20;;;;;;;27.30;15.85;101117.55;1697103;84;27339;-70
2022/05/10 10:30:52;;;;;;;2.65;1.47;;;;;;;27.73;15.41;101118.67;1697217;84;25390;-70
2022/05/10 10:33:44;;;;;;;3.67;1.70;;;;;;;27.83;15.71;101112.25;1674767;84;25643;-70
2022/05/10 10:36:18;;;;;;;4.17;1.72;;;;;;;28.15;15.94;101102.12;1697007;84;25921;-70
2022/05/10 10:38:56;;;;;;;3.58;1.77;;;;;;;28.67;15.98;101096.44;1682282;84;25791;-69
2022/05/10 10:41:42;;;;;;;3.98;1.80;;;;;;;29.04;15.56;101099.00;1697151;84;27676;-69
2022/05/10 10:44:20;;;;;;;4.90;1.60;;;;;;;29.21;15.21;101091.03;1697004;84;25613;-69
2022/05/10 10:47:15;;;;;;;4.45;2.08;;;;;;;29.08;14.80;101094.16;1694740;84;25403;-70
2022/05/10 10:50:23;;;;;;;2.35;1.77;;;;;;;29.04;14.95;101074.72;1697058;84;25811;-68
2022/05/10 10:52:52;;;;;;;3.15;1.92;;;;;;;29.26;14.92;101076.47;1697236;84;25614;-69
2022/05/10 10:55:21;;;;;;;1.45;1.35;;;;;;;29.30;14.90;101071.02;1697168;84;27331;-69
2022/05/10 10:57:59;;;;;;;;;;;;;;;29.43;14.64;101067.06;1699639;84;25755;-69
2022/05/10 11:00:37;;;;;;;2.50;1.60;;;;;;;29.15;14.10;101066.82;1696654;84;25663;-69
2022/05/10 11:03:31;;;;;;;4.00;1.80;;;;;;;28.67;14.30;101059.68;1685725;84;26577;-69
2022/05/10 11:06:24;;;;;;;5.08;1.95;;;;;;;28.21;14.44;101073.42;1697191;84;25694;-70
2022/05/10 11:09:05;;;;;;;3.37;2.67;;;;;;;27.71;14.84;101057.94;1697149;84;27374;-70
2022/05/10 11:12:02;;;;;;;2.05;1.80;;;;;;;27.84;15.45;101048.52;1696953;84;25402;-70
2022/05/10 11:14:50;;;;;;;2.27;1.70;;;;;;;27.94;15.12;101043.50;1695280;83;25405;-69
2022/05/10 11:17:44;;;;;;;5.72;1.75;;;;;;;27.90;15.28;101036.36;1694652;84;25744;-69
2022/05/10 11:20:28;;;;;;;3.02;1.55;;;;;;;28.08;15.60;101032.06;1693782;84;25304;-69
2022/05/10 11:23:06;;;;;;;4.30;1.67;;;;;;;28.66;15.17;101028.87;1694857;84;27336;-70
2022/05/10 11:26:02;;;;;;;2.50;1.60;;;;;;;29.01;14.86;101024.06;1695035;84;25636;-68
2022/05/10 11:28:57;;;;;;;4.87;1.72;;;;;;;29.33;14.66;101020.03;1695069;84;25658;-68
2022/05/10 11:31:52;;;;;;;4.45;1.80;;;;;;;29.67;14.40;101014.92;1694690;84;25589;-68
2022/05/10 11:34:52;;;;;;;4.85;1.67;;;;;;;29.57;13.95;101007.53;1694960;84;25611;-67
2022/05/10 11:37:23;;;;;;;3.60;1.57;;;;;;;29.29;14.23;101004.60;1694975;84;27413;-67
2022/05/10 11:40:24;;;;;;;4.55;2.00;;;;;;;29.17;14.36;100992.05;1694656;84;25610;-67
2022/05/10 11:43:08;;;;;;;2.90;1.92;;;;;;;29.11;14.66;100984.72;1689472;84;25904;-65
2022/05/10 11:46:13;;;;;;;7.85;1.80;;;;;;;29.30;14.15;100989.45;1689522;84;25817;-65
2022/05/10 11:49:20;;;;;;;3.58;1.80;;;;;;;28.69;14.27;100978.56;1689630;84;25706;-66
2022/05/10 11:52:21;;;;;;;3.87;1.60;;;;;;;28.65;14.88;100968.05;1689642;84;27350;-67
2022/05/10 11:55:22;;;;;;;3.58;1.52;;;;;;;28.92;14.27;100979.22;1688653;84;25370;-67
2022/05/10 11:57:54;;;;;;;2.25;1.72;;;;;;;28.51;14.49;100955.87;1689568;84;25603;-73
2022/05/10 12:00:35;;;;;;;3.65;2.05;;;;;;;28.40;14.32;100953.03;1690150;84;25684;-72
2022/05/10 12:03:12;;;;;;;2.85;2.00;;;;;;;28.14;14.71;100949.76;1655496;86;25706;-70
2022/05/10 12:05:41;;;;;;;4.20;1.90;;;;;;;28.31;14.80;100943.80;1654929;86;27298;-71
2022/05/10 12:08:21;;;;;;;5.15;2.67;;;;;;;28.15;14.42;100951.34;1632639;86;25782;-73
2022/05/10 12:10:48;;;;;;;2.90;2.10;;;;;;;28.16;14.94;100946.56;1654994;86;25477;-72